sensor_id;sensor_type;location;lat;lon;timestamp;pressure;altitude;pressure_sealevel;temperature;humidity
65054;BME280;51639;47.828;35.038;2023-02-28T00:14:12;100759.53;;;6.31;100.00
65054;BME280;51639;47.828;35.038;2023-02-28T00:29:14;100789.91;;;6.76;100.00
65054;BME280;51639;47.828;35.038;2023-02-28T00:44:17;100798.56;;;6.04;100.00
65054;BME280;51639;47.828;35.038;2023-02-28T00:59:19;100791.19;;;5.64;100.00
65054;BME280;51639;47.828;35.038;2023-02-28T01:14:21;100794.88;;;5.52;100.00
65054;BME280;51639;47.828;35.038;2023-02-28T01:29:22;100803.06;;;5.93;100.00
65054;BME280;51639;47.828;35.038;2023-02-28T01:45:00;100802.56;;;5.50;100.00
65054;BME280;51639;47.828;35.038;2023-02-28T02:00:12;100822.38;;;5.35;100.00
65054;BME280;51639;47.828;35.038;2023-02-28T02:15:24;100861.06;;;5.53;100.00
65054;BME280;51639;47.828;35.038;2023-02-28T02:45:56;100925.59;;;5.42;100.00
65054;BME280;51639;47.828;35.038;2023-02-28T03:01:02;100926.78;;;5.22;100.00
65054;BME280;51639;47.828;35.038;2023-02-28T03:31:22;100971.09;;;5.51;100.00
65054;BME280;51639;47.828;35.038;2023-02-28T03:46:31;100971.75;;;4.95;100.00
65054;BME280;51639;47.828;35.038;2023-02-28T04:01:41;100997.53;;;5.19;100.00
65054;BME280;51639;47.828;35.038;2023-02-28T04:16:44;101003.91;;;5.34;100.00
65054;BME280;51639;47.828;35.038;2023-02-28T04:31:47;101007.06;;;4.52;100.00
65054;BME280;51639;47.828;35.038;2023-02-28T04:46:49;101020.50;;;4.52;100.00
65054;BME280;51639;47.828;35.038;2023-02-28T05:01:51;101056.75;;;4.38;100.00
65054;BME280;51639;47.828;35.038;2023-02-28T05:16:53;101067.22;;;4.43;100.00
65054;BME280;51639;47.828;35.038;2023-02-28T05:31:55;101084.63;;;4.50;100.00
65054;BME280;51639;47.828;35.038;2023-02-28T05:46:59;101100.13;;;4.56;100.00
65054;BME280;51639;47.828;35.038;2023-02-28T06:02:01;101114.78;;;4.59;100.00
65054;BME280;51639;47.828;35.038;2023-02-28T06:17:03;101128.59;;;4.76;100.00
65054;BME280;51639;47.828;35.038;2023-02-28T06:32:05;101153.81;;;4.88;100.00
65054;BME280;51639;47.828;35.038;2023-02-28T06:47:08;101151.31;;;5.18;100.00
65054;BME280;51639;47.828;35.038;2023-02-28T07:02:10;101153.69;;;5.23;100.00
65054;BME280;51639;47.828;35.038;2023-02-28T07:17:12;101173.56;;;5.14;100.00
65054;BME280;51639;47.828;35.038;2023-02-28T07:32:14;101169.00;;;5.38;100.00
65054;BME280;51639;47.828;35.038;2023-02-28T07:47:16;101156.03;;;6.12;100.00
65054;BME280;51639;47.828;35.038;2023-02-28T08:02:18;101160.31;;;6.69;100.00
65054;BME280;51639;47.828;35.038;2023-02-28T08:17:20;101171.56;;;6.75;100.00
65054;BME280;51639;47.828;35.038;2023-02-28T08:32:22;101181.88;;;6.99;100.00
65054;BME280;51639;47.828;35.038;2023-02-28T08:47:30;101205.09;;;7.04;100.00
65054;BME280;51639;47.828;35.038;2023-02-28T09:02:32;101202.53;;;6.84;100.00
65054;BME280;51639;47.828;35.038;2023-02-28T09:17:34;101209.00;;;7.10;100.00
65054;BME280;51639;47.828;35.038;2023-02-28T09:32:36;101235.38;;;6.90;100.00
65054;BME280;51639;47.828;35.038;2023-02-28T09:47:43;101239.81;;;7.72;100.00
65054;BME280;51639;47.828;35.038;2023-02-28T10:03:12;101247.94;;;7.39;100.00
65054;BME280;51639;47.828;35.038;2023-02-28T10:18:24;101230.31;;;7.48;100.00
65054;BME280;51639;47.828;35.038;2023-02-28T10:33:32;101197.75;;;7.38;100.00
65054;BME280;51639;47.828;35.038;2023-02-28T10:48:43;101193.56;;;7.84;100.00
65054;BME280;51639;47.828;35.038;2023-02-28T11:03:47;101192.91;;;7.95;100.00
65054;BME280;51639;47.828;35.038;2023-02-28T11:18:55;101181.69;;;7.93;100.00
65054;BME280;51639;47.828;35.038;2023-02-28T11:33:57;101173.72;;;8.69;100.00
65054;BME280;51639;47.828;35.038;2023-02-28T12:05:09;101158.38;;;8.29;100.00
65054;BME280;51639;47.828;35.038;2023-02-28T12:36:01;101164.72;;;8.50;100.00
65054;BME280;51639;47.828;35.038;2023-02-28T12:50:58;101156.25;;;7.53;100.00
65054;BME280;51639;47.828;35.038;2023-02-28T13:21:22;101142.53;;;6.98;100.00
65054;BME280;51639;47.828;35.038;2023-02-28T13:36:27;101132.47;;;7.29;100.00
65054;BME280;51639;47.828;35.038;2023-02-28T13:51:43;101134.38;;;7.28;100.00
65054;BME280;51639;47.828;35.038;2023-02-28T14:06:48;101131.75;;;6.98;100.00
65054;BME280;51639;47.828;35.038;2023-02-28T14:37:04;101132.94;;;6.71;100.00
65054;BME280;51639;47.828;35.038;2023-02-28T14:52:14;101118.69;;;6.40;100.00
65054;BME280;51639;47.828;35.038;2023-02-28T15:07:17;101119.81;;;6.39;100.00
65054;BME280;51639;47.828;35.038;2023-02-28T15:22:27;101102.22;;;6.19;100.00
65054;BME280;51639;47.828;35.038;2023-02-28T15:37:56;101115.19;;;5.87;100.00
65054;BME280;51639;47.828;35.038;2023-02-28T15:53:00;101124.66;;;5.77;100.00
65054;BME280;51639;47.828;35.038;2023-02-28T16:08:13;101130.41;;;5.53;100.00
65054;BME280;51639;47.828;35.038;2023-02-28T16:23:15;101148.47;;;5.30;100.00
65054;BME280;51639;47.828;35.038;2023-02-28T16:38:17;101141.28;;;4.95;100.00
65054;BME280;51639;47.828;35.038;2023-02-28T16:53:21;101140.44;;;4.72;100.00
65054;BME280;51639;47.828;35.038;2023-02-28T17:08:23;101136.56;;;4.54;100.00
65054;BME280;51639;47.828;35.038;2023-02-28T17:23:25;101130.06;;;4.20;100.00
65054;BME280;51639;47.828;35.038;2023-02-28T17:38:28;101131.19;;;4.19;100.00
65054;BME280;51639;47.828;35.038;2023-02-28T17:53:31;101142.41;;;3.89;100.00
65054;BME280;51639;47.828;35.038;2023-02-28T18:08:34;101150.44;;;4.05;100.00
65054;BME280;51639;47.828;35.038;2023-02-28T18:23:36;101144.84;;;3.94;100.00
65054;BME280;51639;47.828;35.038;2023-02-28T18:38:39;101141.00;;;3.80;100.00
65054;BME280;51639;47.828;35.038;2023-02-28T18:53:42;101150.56;;;3.77;100.00
65054;BME280;51639;47.828;35.038;2023-02-28T19:08:44;101140.91;;;3.60;100.00
65054;BME280;51639;47.828;35.038;2023-02-28T19:23:47;101155.81;;;3.14;100.00
65054;BME280;51639;47.828;35.038;2023-02-28T19:38:50;101155.47;;;2.88;100.00
65054;BME280;51639;47.828;35.038;2023-02-28T19:53:52;101145.28;;;2.93;100.00
65054;BME280;51639;47.828;35.038;2023-02-28T20:08:54;101136.59;;;2.84;100.00
65054;BME280;51639;47.828;35.038;2023-02-28T20:23:56;101127.59;;;2.77;100.00
65054;BME280;51639;47.828;35.038;2023-02-28T20:38:59;101113.28;;;2.72;100.00
65054;BME280;51639;47.828;35.038;2023-02-28T20:54:01;101109.19;;;2.63;100.00
65054;BME280;51639;47.828;35.038;2023-02-28T21:09:08;101103.81;;;2.63;100.00
65054;BME280;51639;47.828;35.038;2023-02-28T21:24:11;101112.31;;;2.65;100.00
65054;BME280;51639;47.828;35.038;2023-02-28T21:39:16;101099.75;;;2.81;100.00
65054;BME280;51639;47.828;35.038;2023-02-28T21:54:20;101093.50;;;2.77;100.00
65054;BME280;51639;47.828;35.038;2023-02-28T22:09:22;101073.22;;;2.92;100.00
65054;BME280;51639;47.828;35.038;2023-02-28T22:24:24;101040.31;;;2.79;100.00
65054;BME280;51639;47.828;35.038;2023-02-28T22:39:25;101023.41;;;2.63;100.00
65054;BME280;51639;47.828;35.038;2023-02-28T22:54:28;101023.69;;;2.73;100.00
65054;BME280;51639;47.828;35.038;2023-02-28T23:09:29;101012.97;;;2.73;100.00
65054;BME280;51639;47.828;35.038;2023-02-28T23:24:33;101008.28;;;2.70;100.00
65054;BME280;51639;47.828;35.038;2023-02-28T23:39:35;100989.66;;;2.62;100.00
65054;BME280;51639;47.828;35.038;2023-02-28T23:54:38;100969.31;;;2.45;100.00
